Terminal Aerodrome Forecast
Issued by NWS Cleveland, OH

Home | Current Version | Previous Version | Text Only | Print | Product List | Glossary Off
Versions: 1 2 3 4 5 6 7 8 9 10 11 12 13 14 15 16 17 18 19 20

000
FTUS41 KCLE 151139
TAFERI
TAF
KERI 151139Z 1512/1612 14011KT P6SM OVC200
     FM152000 14009KT 4SM -SN OVC040
     FM152200 14009KT 2SM -SN OVC020
     FM160100 16012KT 2SM -SN OVC020
      TEMPO 1601/1604 1SM -SN
     FM160800 20009KT 4SM -SN OVC015
     FM161000 22009KT P6SM OVC015=

USA.gov is the U.S. government's official web portal to all federal, state and local government web resources and services.